createdAt,value
2022-12-23T00:01:28.176Z,24.67
2022-12-23T00:04:00.542Z,27.70
2022-12-23T00:06:28.918Z,23.20
2022-12-23T00:08:59.401Z,24.63
2022-12-23T00:11:29.555Z,27.53
2022-12-23T00:14:21.219Z,28.70
2022-12-23T00:16:51.651Z,26.40
2022-12-23T00:19:21.451Z,30.37
2022-12-23T00:21:49.717Z,24.20
2022-12-23T00:24:18.107Z,26.73
2022-12-23T00:26:46.497Z,27.87
2022-12-23T00:29:14.823Z,30.93
2022-12-23T00:31:43.163Z,27.17
2022-12-23T00:34:13.017Z,28.20
2022-12-23T00:36:42.833Z,29.97
2022-12-23T00:39:31.541Z,26.63
2022-12-23T00:42:17.577Z,30.60
2022-12-23T00:44:45.954Z,27.10
2022-12-23T00:47:36.073Z,33.83
2022-12-23T00:50:03.507Z,29.20
2022-12-23T00:52:33.140Z,35.60
2022-12-23T00:55:01.453Z,38.30
2022-12-23T00:57:31.720Z,36.27
2022-12-23T01:00:00.232Z,31.43
2022-12-23T01:02:46.225Z,21.40
2022-12-23T01:05:40.347Z,19.07
2022-12-23T01:08:12.983Z,22.57
2022-12-23T01:10:42.265Z,14.53
2022-12-23T01:13:10.558Z,18.47
2022-12-23T01:15:38.861Z,19.53
2022-12-23T01:18:07.292Z,24.50
2022-12-23T01:20:35.958Z,21.90
2022-12-23T01:23:04.362Z,19.63
2022-12-23T01:25:34.660Z,21.53
2022-12-23T01:28:03.043Z,28.70
2022-12-23T01:30:31.369Z,20.17
2022-12-23T01:32:59.732Z,30.93
2022-12-23T01:35:28.341Z,29.80
2022-12-23T01:37:56.604Z,32.60
2022-12-23T01:40:25.024Z,24.30
2022-12-23T01:42:53.772Z,16.73
2022-12-23T01:45:28.672Z,19.67
2022-12-23T01:48:00.106Z,24.30
2022-12-23T01:50:32.530Z,21.37
2022-12-23T01:53:08.194Z,20.10
2022-12-23T01:55:42.651Z,30.47
2022-12-23T01:58:16.415Z,18.80
2022-12-23T02:01:02.380Z,20.47
2022-12-23T02:03:43.363Z,23.97
2022-12-23T02:06:36.772Z,17.73
2022-12-23T02:09:18.109Z,18.90
2022-12-23T02:12:36.947Z,18.30
2022-12-23T02:15:44.915Z,14.83
2022-12-23T02:18:37.412Z,20.10
2022-12-23T02:21:23.280Z,19.43
2022-12-23T02:24:26.111Z,15.33
2022-12-23T02:27:14.600Z,18.00
2022-12-23T02:30:26.098Z,22.63
2022-12-23T02:33:20.620Z,19.67
2022-12-23T02:36:00.473Z,26.07
2022-12-23T02:38:35.406Z,25.97
2022-12-23T02:41:15.123Z,22.87
2022-12-23T02:43:48.385Z,21.80
2022-12-23T02:46:25.039Z,30.63
2022-12-23T02:49:02.132Z,30.40
2022-12-23T02:51:36.107Z,25.87
2022-12-23T02:54:09.898Z,27.57
2022-12-23T02:56:44.137Z,22.03
2022-12-23T02:59:17.161Z,25.57
2022-12-23T03:01:46.802Z,22.80
2022-12-23T03:04:16.942Z,31.60
2022-12-23T03:06:49.426Z,21.90
2022-12-23T03:09:30.517Z,21.30
2022-12-23T03:12:07.329Z,19.03
2022-12-23T03:14:57.760Z,26.90
2022-12-23T03:17:44.358Z,27.83
2022-12-23T03:20:26.506Z,23.20
2022-12-23T03:23:04.713Z,21.27
2022-12-23T03:25:38.768Z,22.80
2022-12-23T03:28:12.689Z,20.63
2022-12-23T03:30:45.715Z,28.97
2022-12-23T03:33:19.567Z,23.37
2022-12-23T03:35:56.591Z,22.67
2022-12-23T03:38:25.969Z,16.70
2022-12-23T03:40:59.223Z,28.33
2022-12-23T03:43:34.410Z,28.47
2022-12-23T03:46:09.977Z,32.23
2022-12-23T03:48:43.770Z,27.20
2022-12-23T03:51:18.131Z,26.83
2022-12-23T03:53:52.929Z,24.13
2022-12-23T03:56:28.335Z,23.10
2022-12-23T03:59:01.874Z,21.43
2022-12-23T04:01:43.960Z,21.37
2022-12-23T04:04:21.358Z,18.00
2022-12-23T04:06:57.974Z,17.67
2022-12-23T04:09:29.324Z,20.80
2022-12-23T04:11:59.373Z,17.20
2022-12-23T04:14:27.640Z,18.20
2022-12-23T04:16:59.323Z,19.90
2022-12-23T04:19:27.765Z,31.80
2022-12-23T04:21:58.507Z,27.77
2022-12-23T04:24:26.764Z,22.13
2022-12-23T04:26:55.029Z,25.97
2022-12-23T04:29:23.429Z,20.60
2022-12-23T04:31:51.733Z,23.97
2022-12-23T04:34:20.115Z,19.47
2022-12-23T04:36:48.439Z,25.63
2022-12-23T04:39:18.127Z,27.07
2022-12-23T04:41:46.434Z,21.57
2022-12-23T04:44:14.727Z,21.23
2022-12-23T04:46:43.320Z,26.40
2022-12-23T04:49:11.804Z,22.50
2022-12-23T04:51:40.079Z,22.53
2022-12-23T04:54:08.383Z,28.17
2022-12-23T04:56:38.040Z,26.07
2022-12-23T04:59:06.338Z,23.13
2022-12-23T05:01:34.946Z,29.33
2022-12-23T05:04:03.444Z,22.77
2022-12-23T05:06:31.961Z,25.27
2022-12-23T05:09:00.595Z,19.10
2022-12-23T05:11:29.241Z,20.70
2022-12-23T05:13:59.092Z,22.70
2022-12-23T05:16:27.447Z,18.07
2022-12-23T05:18:55.833Z,28.70
2022-12-23T05:21:24.170Z,33.83
2022-12-23T05:23:52.587Z,21.27
2022-12-23T05:26:20.971Z,23.23
2022-12-23T05:28:49.431Z,31.83
2022-12-23T05:31:19.188Z,19.33
2022-12-23T05:33:47.634Z,21.87
2022-12-23T05:36:17.119Z,30.50
2022-12-23T05:38:45.438Z,24.80
2022-12-23T05:41:14.156Z,26.33
2022-12-23T05:43:42.423Z,27.37
2022-12-23T05:46:10.783Z,38.70
2022-12-23T05:48:40.543Z,30.00
2022-12-23T05:51:08.819Z,28.47
2022-12-23T05:53:37.161Z,24.43
2022-12-23T05:56:07.007Z,30.97
2022-12-23T05:58:36.502Z,40.53
2022-12-23T06:01:05.519Z,41.27
2022-12-23T06:03:34.081Z,28.10
2022-12-23T06:06:03.922Z,39.80
2022-12-23T06:08:32.285Z,27.90
2022-12-23T06:11:00.774Z,28.20
2022-12-23T06:13:29.057Z,35.73
2022-12-23T06:15:57.493Z,36.83
2022-12-23T06:18:25.801Z,20.80
2022-12-23T06:20:54.203Z,28.13
2022-12-23T06:23:23.855Z,29.00
2022-12-23T06:25:58.920Z,34.17
2022-12-23T06:28:27.238Z,38.33
2022-12-23T06:30:55.755Z,28.57
2022-12-23T06:33:25.048Z,30.43
2022-12-23T06:35:53.403Z,31.43
2022-12-23T06:38:23.081Z,24.50
2022-12-23T06:40:51.419Z,27.60
2022-12-23T06:43:19.678Z,33.30
2022-12-23T06:45:49.117Z,38.00
2022-12-23T06:48:18.547Z,37.23
2022-12-23T06:50:47.202Z,32.00
2022-12-23T06:53:16.002Z,31.07
2022-12-23T06:55:45.668Z,33.47
2022-12-23T06:58:14.027Z,33.10
2022-12-23T07:00:42.251Z,31.40
2022-12-23T07:03:10.863Z,32.53
2022-12-23T07:05:39.377Z,37.60
2022-12-23T07:08:07.914Z,38.77
2022-12-23T07:10:36.347Z,31.17
2022-12-23T07:13:06.144Z,35.67
2022-12-23T07:15:34.621Z,31.07
2022-12-23T07:18:02.904Z,33.00
2022-12-23T07:20:31.297Z,32.37
2022-12-23T07:23:00.006Z,34.53
2022-12-23T07:25:28.745Z,42.20
2022-12-23T07:27:57.392Z,41.40
2022-12-23T07:30:27.418Z,37.90
2022-12-23T07:32:55.833Z,42.90
2022-12-23T07:35:24.221Z,41.80
2022-12-23T07:37:55.013Z,45.93
2022-12-23T07:40:23.825Z,40.40
2022-12-23T07:42:55.280Z,37.07
2022-12-23T07:45:23.918Z,44.03
2022-12-23T07:47:55.972Z,38.80
2022-12-23T07:50:25.742Z,43.57
2022-12-23T07:52:55.095Z,43.43
2022-12-23T07:55:23.876Z,37.73
2022-12-23T07:57:53.487Z,37.93
2022-12-23T08:00:22.789Z,45.83
2022-12-23T08:02:51.246Z,50.33
2022-12-23T08:05:21.297Z,45.60
2022-12-23T08:07:50.414Z,45.07
2022-12-23T08:10:18.930Z,40.57
2022-12-23T08:12:47.596Z,44.33
2022-12-23T08:15:16.153Z,43.30
2022-12-23T08:17:44.519Z,43.53
2022-12-23T08:20:13.631Z,50.57
2022-12-23T08:22:43.276Z,39.10
2022-12-23T08:25:11.772Z,37.73
2022-12-23T08:27:40.209Z,39.07
2022-12-23T08:30:10.492Z,39.17
2022-12-23T08:32:38.938Z,42.27
2022-12-23T08:35:08.526Z,44.63
2022-12-23T08:37:36.832Z,38.80
2022-12-23T08:40:10.760Z,34.80
2022-12-23T08:42:39.084Z,47.80
2022-12-23T08:45:08.599Z,35.60
2022-12-23T08:47:37.033Z,48.70
2022-12-23T08:50:06.535Z,54.73
2022-12-23T08:52:34.921Z,41.60
2022-12-23T08:55:03.433Z,44.67
2022-12-23T08:57:33.070Z,42.40
2022-12-23T09:00:01.660Z,43.23
2022-12-23T09:02:30.091Z,41.80
2022-12-23T09:04:58.637Z,51.10
2022-12-23T09:07:27.060Z,57.07
2022-12-23T09:09:55.350Z,46.97
2022-12-23T09:12:23.742Z,48.50
2022-12-23T09:14:53.711Z,48.17
2022-12-23T09:17:22.056Z,46.33
2022-12-23T09:19:52.921Z,54.83
2022-12-23T09:22:21.846Z,57.60
2022-12-23T09:24:50.168Z,61.20
2022-12-23T09:27:19.543Z,74.23
2022-12-23T09:29:47.947Z,71.07
2022-12-23T09:32:17.860Z,79.13
2022-12-23T09:34:46.475Z,74.03
2022-12-23T09:37:16.742Z,77.90
2022-12-23T09:39:45.086Z,66.87
2022-12-23T09:42:41.966Z,73.37
2022-12-23T09:45:20.183Z,67.00
2022-12-23T09:47:51.531Z,70.90
2022-12-23T09:50:27.555Z,71.23
2022-12-23T09:53:03.569Z,70.27
2022-12-23T09:55:41.421Z,52.93
2022-12-23T09:58:23.872Z,43.70
2022-12-23T10:01:14.628Z,56.27
2022-12-23T10:04:26.477Z,48.50
2022-12-23T10:07:20.651Z,40.83
2022-12-23T10:09:52.990Z,43.30
2022-12-23T10:12:39.129Z,34.97
2022-12-23T10:15:23.372Z,34.17
2022-12-23T10:17:57.042Z,30.23
2022-12-23T10:20:40.540Z,36.03
2022-12-23T10:23:17.832Z,31.77
2022-12-23T10:25:52.638Z,42.97
2022-12-23T10:28:21.373Z,26.60
2022-12-23T10:31:31.080Z,26.60
2022-12-23T10:34:02.186Z,28.90
2022-12-23T10:36:45.912Z,29.30
2022-12-23T10:39:27.093Z,31.00
2022-12-23T10:42:09.981Z,24.77
2022-12-23T10:45:11.042Z,31.20
2022-12-23T10:47:52.810Z,22.00
2022-12-23T10:50:39.895Z,30.93
2022-12-23T10:53:13.497Z,28.40
2022-12-23T10:55:41.998Z,30.17
2022-12-23T10:58:18.187Z,30.20
2022-12-23T11:00:53.114Z,26.60
2022-12-23T11:03:25.341Z,31.20
2022-12-23T11:05:54.936Z,27.30
2022-12-23T11:08:27.249Z,22.63
2022-12-23T11:10:56.430Z,29.80
2022-12-23T11:13:34.825Z,23.63
2022-12-23T11:16:20.292Z,26.27
2022-12-23T11:19:03.301Z,30.73
2022-12-23T11:21:34.264Z,26.27
2022-12-23T11:24:18.561Z,29.40
2022-12-23T11:26:50.365Z,26.63
2022-12-23T11:29:24.668Z,29.20
2022-12-23T11:31:53.493Z,27.00
2022-12-23T11:34:24.813Z,24.60
2022-12-23T11:37:00.171Z,28.03
2022-12-23T11:39:37.324Z,26.60
2022-12-23T11:42:13.037Z,24.37
2022-12-23T11:44:45.371Z,30.70
2022-12-23T11:47:26.194Z,25.40
2022-12-23T11:49:56.924Z,29.43
2022-12-23T11:52:26.991Z,31.70
2022-12-23T11:54:59.493Z,23.20
2022-12-23T11:57:39.867Z,32.07
2022-12-23T12:00:20.577Z,25.00
2022-12-23T12:02:53.444Z,25.57
2022-12-23T12:05:28.411Z,35.27
2022-12-23T12:08:02.573Z,23.30
2022-12-23T12:10:35.801Z,27.80
2022-12-23T12:13:07.409Z,25.07
2022-12-23T12:15:45.443Z,28.20
2022-12-23T12:18:20.029Z,24.67
2022-12-23T12:20:54.444Z,25.87
2022-12-23T12:23:28.774Z,28.00
2022-12-23T12:26:03.868Z,28.50
2022-12-23T12:28:39.340Z,35.73
2022-12-23T12:31:18.203Z,27.00
2022-12-23T12:33:53.318Z,23.03
2022-12-23T12:36:34.103Z,26.70
2022-12-23T12:39:02.571Z,27.83
2022-12-23T12:41:38.225Z,30.27
2022-12-23T12:44:28.010Z,23.60
2022-12-23T12:47:28.141Z,26.37
2022-12-23T12:50:00.016Z,24.10
2022-12-23T12:52:29.382Z,26.13
2022-12-23T12:55:03.634Z,27.67
2022-12-23T12:57:36.341Z,25.83
2022-12-23T13:00:14.550Z,28.97
2022-12-23T13:03:22.879Z,27.30
2022-12-23T13:06:19.051Z,30.63
2022-12-23T13:09:08.647Z,25.77
2022-12-23T13:11:45.190Z,27.17
2022-12-23T13:14:30.923Z,26.80
2022-12-23T13:17:09.377Z,30.60
2022-12-23T13:19:48.028Z,31.20
2022-12-23T13:22:19.606Z,27.47
2022-12-23T13:24:58.539Z,38.00
2022-12-23T13:27:32.758Z,23.33
2022-12-23T13:30:13.056Z,25.23
2022-12-23T13:33:06.818Z,27.00
2022-12-23T13:36:05.243Z,28.53
2022-12-23T13:38:52.942Z,23.50
2022-12-23T13:41:33.603Z,19.30
2022-12-23T13:44:05.314Z,22.30
2022-12-23T13:46:47.006Z,28.20
2022-12-23T13:49:25.888Z,19.07
2022-12-23T13:52:03.755Z,17.87
2022-12-23T13:54:51.785Z,18.93
2022-12-23T13:57:45.956Z,18.83
2022-12-23T14:00:32.593Z,19.67
2022-12-23T14:03:25.017Z,17.90
2022-12-23T14:05:54.446Z,17.83
2022-12-23T14:08:35.742Z,13.03
2022-12-23T14:11:13.496Z,17.83
2022-12-23T14:13:45.699Z,12.83
2022-12-23T14:16:38.335Z,14.33
2022-12-23T14:19:46.126Z,16.00
2022-12-23T14:22:42.990Z,11.17
2022-12-23T14:25:58.129Z,19.10
2022-12-23T14:28:46.362Z,14.77
2022-12-23T14:31:41.609Z,14.20
2022-12-23T14:37:37.063Z,12.23
2022-12-23T14:40:49.642Z,12.70
2022-12-23T14:43:57.518Z,9.97
2022-12-23T14:46:59.587Z,12.30
2022-12-23T14:49:44.599Z,11.27
2022-12-23T14:52:48.286Z,17.23
2022-12-23T14:55:49.624Z,12.87
2022-12-23T14:58:52.763Z,12.93
2022-12-23T15:01:28.417Z,14.13
2022-12-23T15:04:01.664Z,14.43
2022-12-23T15:06:37.135Z,11.30
2022-12-23T15:09:08.533Z,11.20
2022-12-23T15:11:38.084Z,13.20
2022-12-23T15:14:19.867Z,16.37
2022-12-23T15:16:48.430Z,11.20
2022-12-23T15:19:25.872Z,12.33
2022-12-23T15:22:17.313Z,13.60
2022-12-23T15:24:52.230Z,14.63
2022-12-23T15:27:30.216Z,14.40
2022-12-23T15:29:59.338Z,11.90
2022-12-23T15:32:30.288Z,17.70
2022-12-23T15:35:06.750Z,14.87
2022-12-23T15:37:35.765Z,22.33
2022-12-23T15:40:13.136Z,19.97
2022-12-23T15:42:49.317Z,21.73
2022-12-23T15:45:34.634Z,26.27
2022-12-23T15:48:05.326Z,20.97
2022-12-23T15:50:41.826Z,19.17
2022-12-23T15:53:14.958Z,19.07
2022-12-23T15:55:45.162Z,20.90
2022-12-23T15:58:20.863Z,23.97
2022-12-23T16:00:55.646Z,36.13
2022-12-23T16:03:31.433Z,30.33
2022-12-23T16:06:10.773Z,23.60
2022-12-23T16:08:39.868Z,21.63
2022-12-23T16:11:16.408Z,20.20
2022-12-23T16:13:58.802Z,26.50
2022-12-23T16:16:39.686Z,27.43
2022-12-23T16:19:39.857Z,18.70
2022-12-23T16:22:15.683Z,18.00
2022-12-23T16:24:49.858Z,11.60
2022-12-23T16:27:33.451Z,13.70
2022-12-23T16:30:05.340Z,20.50
2022-12-23T16:32:50.370Z,20.80
2022-12-23T16:35:37.049Z,27.77
2022-12-23T16:38:19.465Z,20.20
2022-12-23T16:40:50.098Z,24.77
2022-12-23T16:43:21.306Z,21.30
2022-12-23T16:45:53.987Z,19.63
2022-12-23T16:48:30.636Z,15.47
2022-12-23T16:51:00.213Z,20.23
2022-12-23T16:53:28.924Z,19.10
2022-12-23T16:56:00.839Z,26.77
2022-12-23T16:58:31.183Z,33.20
2022-12-23T17:00:59.791Z,28.43
2022-12-23T17:03:28.094Z,24.47
2022-12-23T17:05:56.344Z,26.37
2022-12-23T17:08:24.950Z,24.80
2022-12-23T17:10:53.596Z,32.20
2022-12-23T17:13:21.888Z,33.17
2022-12-23T17:15:51.564Z,28.00
2022-12-23T17:18:21.046Z,28.77
2022-12-23T17:20:50.786Z,17.87
2022-12-23T17:23:29.081Z,29.57
2022-12-23T17:25:57.718Z,20.37
2022-12-23T17:28:30.103Z,21.20
2022-12-23T17:31:00.358Z,29.47
2022-12-23T17:33:32.580Z,67.47
2022-12-23T17:36:01.756Z,33.93
2022-12-23T17:38:30.189Z,14.90
2022-12-23T17:40:59.457Z,15.70
2022-12-23T17:43:28.078Z,27.27
2022-12-23T17:45:56.587Z,19.50
2022-12-23T17:48:31.448Z,26.47
2022-12-23T17:51:00.384Z,27.10
2022-12-23T17:53:28.913Z,20.77
2022-12-23T17:55:57.238Z,33.83
2022-12-23T17:58:25.552Z,24.10
2022-12-23T18:00:53.964Z,23.40
2022-12-23T18:03:26.130Z,28.37
2022-12-23T18:06:01.643Z,28.53
2022-12-23T18:08:30.603Z,20.70
2022-12-23T18:11:00.495Z,17.83
2022-12-23T18:13:28.929Z,36.17
2022-12-23T18:15:57.444Z,25.33
2022-12-23T18:18:35.559Z,17.43
2022-12-23T18:21:10.290Z,19.77
2022-12-23T18:23:38.602Z,27.43
2022-12-23T18:26:07.019Z,25.43
2022-12-23T18:28:35.358Z,23.07
2022-12-23T18:31:03.738Z,25.20
2022-12-23T18:33:33.533Z,21.20
2022-12-23T18:36:01.831Z,21.20
2022-12-23T18:38:30.141Z,17.97
2022-12-23T18:40:58.602Z,39.77
2022-12-23T18:43:28.085Z,32.13
2022-12-23T18:45:56.605Z,28.63
2022-12-23T18:48:25.033Z,34.63
2022-12-23T18:50:54.723Z,21.47
2022-12-23T18:53:25.482Z,20.80
2022-12-23T18:55:55.162Z,31.27
2022-12-23T18:58:24.428Z,20.93
2022-12-23T19:00:54.315Z,18.77
2022-12-23T19:03:25.473Z,18.60
2022-12-23T19:05:57.154Z,29.17
2022-12-23T19:08:27.977Z,19.83
2022-12-23T19:10:56.975Z,22.43
2022-12-23T19:13:25.505Z,15.07
2022-12-23T19:15:53.957Z,22.53
2022-12-23T19:18:23.534Z,28.40
2022-12-23T19:20:51.875Z,18.63
2022-12-23T19:23:21.682Z,24.43
2022-12-23T19:25:55.193Z,22.70
2022-12-23T19:28:24.381Z,24.93
2022-12-23T19:30:52.821Z,23.03
2022-12-23T19:33:23.956Z,14.90
2022-12-23T19:35:52.322Z,19.47
2022-12-23T19:38:22.003Z,11.33
2022-12-23T19:40:58.627Z,26.73
2022-12-23T19:43:27.079Z,12.97
2022-12-23T19:45:59.974Z,24.37
2022-12-23T19:48:29.051Z,15.70
2022-12-23T19:50:59.428Z,17.30
2022-12-23T19:53:29.719Z,18.90
2022-12-23T19:55:59.516Z,19.50
2022-12-23T19:58:28.584Z,20.33
2022-12-23T20:01:08.177Z,17.83
2022-12-23T20:03:37.524Z,15.47
2022-12-23T20:06:07.266Z,18.33
2022-12-23T20:08:36.971Z,13.30
2022-12-23T20:11:07.897Z,21.60
2022-12-23T20:13:37.108Z,26.73
2022-12-23T20:16:07.321Z,16.10
2022-12-23T20:18:35.963Z,16.90
2022-12-23T20:21:05.177Z,25.83
2022-12-23T20:23:33.754Z,20.50
2022-12-23T20:26:04.270Z,13.60
2022-12-23T20:28:34.567Z,13.60
2022-12-23T20:31:09.213Z,20.33
2022-12-23T20:33:39.241Z,8.60
2022-12-23T20:36:09.066Z,11.73
2022-12-23T20:38:38.694Z,17.27
2022-12-23T20:41:10.627Z,13.63
2022-12-23T20:43:39.016Z,21.77
2022-12-23T20:46:10.029Z,16.27
2022-12-23T20:48:38.703Z,14.17
2022-12-23T20:51:09.623Z,23.63
2022-12-23T20:53:38.639Z,14.77
2022-12-23T20:56:12.596Z,14.03
2022-12-23T20:58:55.855Z,12.53
2022-12-23T21:01:27.903Z,13.60
2022-12-23T21:03:57.622Z,18.57
2022-12-23T21:06:26.890Z,13.80
2022-12-23T21:08:58.156Z,12.13
2022-12-23T21:11:30.230Z,15.60
2022-12-23T21:14:06.427Z,13.17
2022-12-23T21:16:36.474Z,21.40
2022-12-23T21:19:05.872Z,18.87
2022-12-23T21:21:34.702Z,24.20
2022-12-23T21:24:05.288Z,14.67
2022-12-23T21:26:36.365Z,18.80
2022-12-23T21:29:08.233Z,20.50
2022-12-23T21:31:39.479Z,11.57
2022-12-23T21:34:08.888Z,27.40
2022-12-23T21:36:39.683Z,19.93
2022-12-23T21:39:11.575Z,25.67
2022-12-23T21:41:42.202Z,15.07
2022-12-23T21:44:13.501Z,22.13
2022-12-23T21:46:41.954Z,17.70
2022-12-23T21:49:11.495Z,14.23
2022-12-23T21:51:41.317Z,14.30
2022-12-23T21:54:11.448Z,24.77
2022-12-23T21:56:42.533Z,18.97
2022-12-23T21:59:15.235Z,20.67
2022-12-23T22:01:44.844Z,12.13
2022-12-23T22:04:13.653Z,11.40
2022-12-23T22:06:44.666Z,11.80
2022-12-23T22:09:16.375Z,14.03
2022-12-23T22:11:47.375Z,11.30
2022-12-23T22:14:19.034Z,10.43
2022-12-23T22:16:47.660Z,18.10
2022-12-23T22:19:16.354Z,13.50
2022-12-23T22:21:44.723Z,23.20
2022-12-23T22:24:13.259Z,18.00
2022-12-23T22:26:42.067Z,15.97
2022-12-23T22:29:12.395Z,15.07
2022-12-23T22:31:45.273Z,16.90
2022-12-23T22:34:16.764Z,14.60
2022-12-23T22:36:45.650Z,9.03
2022-12-23T22:39:21.153Z,28.80
2022-12-23T22:41:50.736Z,14.33
2022-12-23T22:44:21.665Z,17.77
2022-12-23T22:46:50.678Z,17.23
2022-12-23T22:49:19.295Z,13.57
2022-12-23T22:51:47.801Z,18.73
2022-12-23T22:54:16.238Z,13.63
2022-12-23T22:56:45.830Z,10.07
2022-12-23T22:59:22.877Z,17.70
2022-12-23T23:01:52.606Z,20.93
2022-12-23T23:04:21.069Z,23.43
2022-12-23T23:06:49.378Z,14.03
2022-12-23T23:09:20.824Z,26.17
2022-12-23T23:11:50.046Z,18.17
2022-12-23T23:14:19.608Z,14.47
2022-12-23T23:16:49.546Z,15.37
2022-12-23T23:19:20.400Z,17.50
2022-12-23T23:21:49.301Z,13.00
2022-12-23T23:24:17.793Z,17.43
2022-12-23T23:26:46.265Z,26.87
2022-12-23T23:29:14.757Z,20.87
2022-12-23T23:31:44.233Z,14.93
2022-12-23T23:34:14.718Z,20.17
2022-12-23T23:36:43.295Z,20.80
2022-12-23T23:39:13.483Z,19.00
2022-12-23T23:41:42.046Z,19.30
2022-12-23T23:44:11.018Z,19.27
2022-12-23T23:46:39.455Z,17.40
2022-12-23T23:49:08.489Z,21.67
2022-12-23T23:51:38.276Z,17.77
2022-12-23T23:54:06.784Z,16.00
2022-12-23T23:56:38.649Z,23.87
2022-12-23T23:59:08.742Z,25.83
